Time;durP1;ratioP1;P1;durP2;ratioP2;P2;SDS_P1;SDS_P2;PMS_P1;PMS_P2;Temp;Humidity;BMP_temperature;BMP_pressure;BME280_temperature;BME280_humidity;BME280_pressure;Samples;Min_cycle;Max_cycle;Signal;HPM_P1;HPM_P2
2021/09/28 00:01:04;;;;;;;13.95;2.25;;;;;;;12.36;84.49;102038.03;5033088;28;20108;-42
2021/09/28 00:03:30;;;;;;;11.82;2.03;;;;;;;12.37;84.42;102038.84;5032961;28;20075;-43
2021/09/28 00:05:55;;;;;;;7.25;1.83;;;;;;;12.40;84.80;102049.72;5032946;28;20028;-43
2021/09/28 00:08:20;;;;;;;14.25;2.30;;;;;;;12.47;84.28;102043.84;5032741;28;20033;-43
2021/09/28 00:10:45;;;;;;;14.52;2.22;;;;;;;12.48;84.17;102048.84;5031424;28;20468;-43
2021/09/28 00:13:12;;;;;;;9.55;2.00;;;;;;;12.50;84.61;102049.50;5032924;28;20025;-43
2021/09/28 00:15:37;;;;;;;16.83;2.67;;;;;;;12.59;84.00;102045.88;5033107;28;20441;-43
2021/09/28 00:18:03;;;;;;;16.75;2.50;;;;;;;12.59;84.34;102061.44;5031695;28;20037;-43
2021/09/28 00:20:29;;;;;;;16.13;2.40;;;;;;;12.63;84.01;102054.97;5032907;28;20029;-43
2021/09/28 00:22:55;;;;;;;12.43;2.30;;;;;;;12.70;83.35;102054.28;5032813;28;20029;-43
2021/09/28 00:25:21;;;;;;;16.27;2.35;;;;;;;12.74;83.28;102058.13;5033095;28;20101;-43
2021/09/28 00:27:47;;;;;;;12.30;2.92;;;;;;;12.74;83.33;102055.53;5032785;28;20437;-43
2021/09/28 00:30:12;;;;;;;12.40;2.30;;;;;;;12.74;83.07;102055.53;5033060;28;20056;-43
2021/09/28 00:32:38;;;;;;;11.48;2.50;;;;;;;12.74;83.06;102061.53;5032813;28;20031;-43
2021/09/28 00:35:04;;;;;;;14.30;2.40;;;;;;;12.75;83.12;102064.97;5032973;28;20025;-43
2021/09/28 00:37:29;;;;;;;10.38;2.13;;;;;;;12.75;83.43;102059.78;5032608;28;20548;-43
2021/09/28 00:39:55;;;;;;;12.63;2.78;;;;;;;12.81;83.18;102064.28;5032940;28;20029;-43
2021/09/28 00:42:20;;;;;;;12.43;2.30;;;;;;;12.84;82.92;102064.75;5032732;28;20018;-43
2021/09/28 00:44:46;;;;;;;16.95;2.88;;;;;;;12.87;82.55;102071.38;5032626;28;20033;-43
2021/09/28 00:47:14;;;;;;;8.93;2.50;;;;;;;12.89;83.00;102072.03;5034302;28;20021;-43
2021/09/28 00:49:44;;;;;;;13.90;2.28;;;;;;;12.95;82.66;102068.75;5036547;28;20033;-43
2021/09/28 00:52:11;;;;;;;14.27;2.90;;;;;;;12.99;82.42;102076.97;5036195;28;20084;-43
2021/09/28 00:54:38;;;;;;;9.65;2.17;;;;;;;12.99;82.25;102075.19;5034872;28;20032;-43
2021/09/28 00:57:08;;;;;;;10.77;2.42;;;;;;;13.03;82.58;102076.47;5036174;28;20029;-43
2021/09/28 00:59:35;;;;;;;11.05;2.13;;;;;;;13.04;82.17;102083.28;5036107;28;20029;-43
2021/09/28 01:02:01;;;;;;;15.52;2.50;;;;;;;12.94;82.40;102082.69;5035968;28;20104;-42
2021/09/28 01:04:27;;;;;;;14.88;2.25;;;;;;;12.87;82.96;102076.56;5036010;28;20107;-43
2021/09/28 01:06:53;;;;;;;12.00;2.20;;;;;;;12.86;83.23;102082.75;5036213;28;20029;-42
2021/09/28 01:09:18;;;;;;;13.77;2.50;;;;;;;12.81;83.48;102085.84;5035878;28;20468;-43
2021/09/28 01:11:43;;;;;;;11.48;2.40;;;;;;;12.74;83.37;102084.06;5036085;28;20021;-43
2021/09/28 01:14:09;;;;;;;15.93;2.63;;;;;;;12.73;83.24;102070.31;5035814;28;20052;-43
2021/09/28 01:16:34;;;;;;;16.60;2.30;;;;;;;12.69;83.59;102076.00;5035782;28;20040;-43
2021/09/28 01:19:00;;;;;;;14.48;2.13;;;;;;;12.67;83.73;102083.16;5035744;28;20026;-43
2021/09/28 01:21:26;;;;;;;14.68;2.80;;;;;;;12.62;84.00;102073.28;5035720;28;20028;-43
2021/09/28 01:23:51;;;;;;;11.00;2.40;;;;;;;12.54;84.22;102086.25;5035671;28;20091;-41
2021/09/28 01:26:20;;;;;;;10.60;2.50;;;;;;;12.57;83.59;102086.75;5034518;28;20025;-42
2021/09/28 01:28:46;;;;;;;16.83;2.60;;;;;;;12.47;84.51;102096.50;5035826;28;20419;-43
2021/09/28 01:31:13;;;;;;;16.55;3.08;;;;;;;12.45;84.56;102090.66;5035557;28;20021;-42
2021/09/28 01:33:39;;;;;;;17.02;2.47;;;;;;;12.43;84.67;102090.06;5035493;28;20048;-43
2021/09/28 01:36:04;;;;;;;20.52;2.70;;;;;;;12.41;84.37;102090.19;5035157;28;20084;-43
2021/09/28 01:38:30;;;;;;;14.20;2.63;;;;;;;12.39;84.38;102083.56;5035463;28;20026;-42
2021/09/28 01:40:56;;;;;;;13.27;2.67;;;;;;;12.38;84.76;102087.13;5036129;28;20025;-42
2021/09/28 01:43:21;;;;;;;14.80;2.90;;;;;;;12.29;85.01;102081.19;5035277;28;20026;-41
2021/09/28 01:45:48;;;;;;;13.38;2.40;;;;;;;12.34;84.30;102083.25;5035234;28;20410;-45
2021/09/28 01:48:14;;;;;;;19.80;3.58;;;;;;;12.29;84.52;102086.34;5035522;28;20063;-43
2021/09/28 01:50:39;;;;;;;11.52;2.30;;;;;;;12.30;84.61;102084.56;5033945;28;20026;-43
2021/09/28 01:53:05;;;;;;;14.70;2.70;;;;;;;12.26;84.62;102084.09;5035141;28;20036;-42
2021/09/28 01:55:30;;;;;;;10.23;2.15;;;;;;;12.19;84.74;102076.16;5034938;28;20021;-42
2021/09/28 01:57:56;;;;;;;17.88;2.78;;;;;;;12.17;85.15;102085.09;5034374;28;20036;-42
2021/09/28 02:00:25;;;;;;;16.20;2.80;;;;;;;12.09;85.55;102091.09;5034747;28;20396;-42
2021/09/28 02:02:51;;;;;;;8.45;2.33;;;;;;;12.07;85.37;102090.44;5035232;28;20148;-42
2021/09/28 02:05:17;;;;;;;17.13;2.67;;;;;;;12.09;85.10;102085.09;5035126;28;20045;-43
2021/09/28 02:07:42;;;;;;;10.30;2.28;;;;;;;12.09;85.11;102085.09;5035172;28;20026;-42
2021/09/28 02:10:08;;;;;;;16.85;2.72;;;;;;;11.97;85.76;102087.25;5034841;28;20020;-42
2021/09/28 02:12:33;;;;;;;12.63;2.40;;;;;;;12.05;85.28;102089.00;5034994;28;20099;-42
2021/09/28 02:14:59;;;;;;;16.73;3.17;;;;;;;12.04;85.44;102089.97;5034662;28;20033;-42
2021/09/28 02:17:24;;;;;;;11.85;2.60;;;;;;;11.99;85.05;102090.44;5034844;28;20033;-42
2021/09/28 02:19:49;;;;;;;12.48;2.80;;;;;;;11.94;85.61;102084.97;5034647;28;20426;-42
2021/09/28 02:22:15;;;;;;;13.55;2.50;;;;;;;12.01;85.08;102096.28;5034502;28;20052;-41
2021/09/28 02:24:40;;;;;;;15.07;3.10;;;;;;;11.98;85.29;102088.84;5034616;28;20029;-43
2021/09/28 02:27:05;;;;;;;15.50;2.30;;;;;;;12.02;85.26;102095.31;5034489;28;20029;-44
2021/09/28 02:29:31;;;;;;;15.02;2.88;;;;;;;12.01;85.23;102085.94;5035077;28;20423;-44
2021/09/28 02:31:56;;;;;;;17.98;2.60;;;;;;;12.05;84.90;102087.19;5035031;28;20095;-43
2021/09/28 02:34:21;;;;;;;17.63;3.28;;;;;;;12.02;85.14;102092.72;5034299;28;20033;-43
2021/09/28 02:36:47;;;;;;;21.25;3.15;;;;;;;11.92;85.27;102087.72;5034006;28;20511;-43
2021/09/28 02:39:12;;;;;;;13.05;2.55;;;;;;;11.88;85.34;102099.38;5034542;28;20044;-43
2021/09/28 02:41:37;;;;;;;14.02;2.85;;;;;;;11.84;85.71;102094.66;5034501;28;20476;-43
2021/09/28 02:44:04;;;;;;;24.25;3.47;;;;;;;11.82;85.81;102094.00;5034447;28;20029;-43
2021/09/28 02:46:31;;;;;;;11.68;3.10;;;;;;;11.83;85.28;102098.22;5034587;28;20111;-43
2021/09/28 02:48:57;;;;;;;14.55;2.78;;;;;;;11.83;85.87;102100.81;5034385;28;20599;-43
2021/09/28 02:51:22;;;;;;;14.30;3.10;;;;;;;11.83;85.98;102100.81;5032788;28;20128;-43
2021/09/28 02:53:47;;;;;;;17.77;2.95;;;;;;;11.89;85.67;102098.41;5034007;28;20021;-43
2021/09/28 02:56:12;;;;;;;15.75;3.22;;;;;;;11.77;85.77;102104.88;5033909;28;20403;-43
2021/09/28 02:58:38;;;;;;;17.52;2.90;;;;;;;11.80;86.09;102098.56;5033862;28;20108;-43
2021/09/28 03:01:03;;;;;;;17.90;2.72;;;;;;;11.72;86.10;102113.09;5034022;28;20021;-44
2021/09/28 03:03:28;;;;;;;16.80;3.05;;;;;;;11.73;85.86;102106.94;5033802;28;20079;-44
2021/09/28 03:05:54;;;;;;;15.82;3.33;;;;;;;11.72;86.17;102109.72;5033777;28;20029;-43
2021/09/28 03:08:19;;;;;;;10.32;3.00;;;;;;;11.73;85.74;102106.13;5034341;28;20036;-43
2021/09/28 03:10:44;;;;;;;15.23;3.20;;;;;;;11.70;86.10;102112.44;5033459;28;20053;-43
2021/09/28 03:13:11;;;;;;;16.38;3.35;;;;;;;11.66;85.96;102113.75;5033691;28;20029;-43
2021/09/28 03:15:36;;;;;;;14.75;3.20;;;;;;;11.70;86.01;102115.03;5033831;28;20383;-43
2021/09/28 03:18:02;;;;;;;11.05;3.03;;;;;;;11.71;85.75;102119.28;5033675;28;20083;-43
2021/09/28 03:20:28;;;;;;;15.45;3.38;;;;;;;11.65;85.89;102116.50;5033594;28;20140;-43
2021/09/28 03:22:53;;;;;;;14.95;2.78;;;;;;;11.60;85.99;102118.78;5033493;28;20049;-43
2021/09/28 03:25:19;;;;;;;15.25;3.22;;;;;;;11.61;86.41;102128.16;5033730;28;20074;-42
2021/09/28 03:27:44;;;;;;;19.92;3.78;;;;;;;11.61;86.08;102115.22;5033961;28;20033;-43
2021/09/28 03:30:10;;;;;;;15.25;3.55;;;;;;;11.61;86.02;102123.78;5033950;28;20025;-43
2021/09/28 03:32:36;;;;;;;17.17;3.38;;;;;;;11.60;85.91;102134.31;5033354;28;20077;-43
2021/09/28 03:35:05;;;;;;;15.02;3.08;;;;;;;11.58;86.03;102118.94;5033525;28;20072;-42
2021/09/28 03:37:30;;;;;;;21.90;3.78;;;;;;;11.59;86.17;102130.09;5033251;28;20481;-43
2021/09/28 03:39:56;;;;;;;19.67;3.50;;;;;;;11.59;85.41;102125.72;5033300;28;20029;-43
2021/09/28 03:42:21;;;;;;;17.00;3.55;;;;;;;11.50;86.36;102129.25;5033288;28;20025;-43
2021/09/28 03:44:46;;;;;;;12.98;3.15;;;;;;;11.50;85.74;102129.25;5033211;28;20441;-43
2021/09/28 03:47:12;;;;;;;21.52;3.25;;;;;;;11.44;85.78;102125.53;5033695;28;20037;-43
2021/09/28 03:49:37;;;;;;;14.90;3.30;;;;;;;11.44;85.84;102127.31;5033154;28;20028;-43
2021/09/28 03:52:02;;;;;;;13.90;3.40;;;;;;;11.43;86.02;102126.50;5033422;28;20029;-43
2021/09/28 03:54:28;;;;;;;22.17;3.58;;;;;;;11.44;85.65;102127.31;5031900;28;20543;-42
2021/09/28 03:56:53;;;;;;;15.73;3.30;;;;;;;11.43;85.63;102131.69;5033108;28;20040;-42
2021/09/28 03:59:18;;;;;;;17.27;3.58;;;;;;;11.39;86.20;102134.75;5033315;28;20028;-42
2021/09/28 04:01:43;;;;;;;14.27;3.33;;;;;;;11.40;85.72;102147.53;5033033;28;20021;-43
2021/09/28 04:04:10;;;;;;;21.75;4.15;;;;;;;11.41;85.43;102145.75;5033031;28;20103;-43
2021/09/28 04:06:35;;;;;;;15.65;3.40;;;;;;;11.40;85.51;102149.31;5033290;28;20100;-43
2021/09/28 04:09:01;;;;;;;14.02;3.25;;;;;;;11.26;86.18;102153.34;5033583;28;20079;-43
2021/09/28 04:11:26;;;;;;;17.38;3.50;;;;;;;11.29;86.01;102159.00;5032971;28;20033;-43
2021/09/28 04:13:51;;;;;;;18.42;3.63;;;;;;;11.33;85.84;102159.47;5033269;28;20028;-43
2021/09/28 04:16:16;;;;;;;16.42;3.33;;;;;;;11.28;85.62;102154.78;5032845;28;20033;-43
2021/09/28 04:18:43;;;;;;;23.35;3.88;;;;;;;11.26;86.41;102155.91;5032992;28;20036;-43
2021/09/28 04:21:08;;;;;;;14.43;3.42;;;;;;;11.23;86.01;102162.22;5033159;28;20072;-43
2021/09/28 04:23:34;;;;;;;13.60;3.58;;;;;;;11.19;86.46;102158.34;5036733;28;20033;-42
2021/09/28 04:25:59;;;;;;;23.25;3.85;;;;;;;11.17;85.76;102156.88;5037290;28;20049;-43
2021/09/28 04:28:25;;;;;;;17.08;3.47;;;;;;;11.22;85.86;102152.84;5036707;28;20078;-43
2021/09/28 04:30:50;;;;;;;19.50;3.72;;;;;;;11.22;85.97;102162.34;5036640;28;20022;-43
2021/09/28 04:33:15;;;;;;;16.48;3.60;;;;;;;11.25;85.61;102157.69;5036561;28;20031;-43
2021/09/28 04:35:41;;;;;;;17.88;4.00;;;;;;;11.20;86.08;102157.34;5036318;28;20506;-44
2021/09/28 04:38:06;;;;;;;15.88;3.63;;;;;;;11.19;86.01;102158.34;5036627;28;20568;-43
2021/09/28 04:40:31;;;;;;;20.15;3.90;;;;;;;11.19;85.79;102157.50;5035310;28;20101;-43
2021/09/28 04:42:57;;;;;;;17.17;4.43;;;;;;;11.20;85.81;102165.13;5036487;28;20135;-43
2021/09/28 04:48:44;;;;;;;18.75;4.13;;;;;;;11.19;86.02;102173.84;5036642;28;20040;-44
2021/09/28 04:51:09;;;;;;;21.85;4.50;;;;;;;11.21;85.70;102179.66;5036358;28;20388;-42
2021/09/28 04:53:35;;;;;;;18.90;4.30;;;;;;;11.09;85.97;102170.56;5036246;28;20025;-43
2021/09/28 04:56:00;;;;;;;15.65;4.35;;;;;;;11.11;86.07;102166.06;5034829;28;20025;-42
2021/09/28 04:58:26;;;;;;;14.13;4.28;;;;;;;11.06;86.31;102179.44;5034839;28;20080;-43
2021/09/28 05:00:52;;;;;;;12.50;4.40;;;;;;;11.11;85.71;102178.19;5036309;28;20467;-43
2021/09/28 05:03:18;;;;;;;17.73;4.40;;;;;;;11.03;86.28;102179.78;5036067;28;20060;-43
2021/09/28 05:05:44;;;;;;;16.15;4.22;;;;;;;11.06;86.17;102173.47;5036074;28;20167;-43
2021/09/28 05:08:09;;;;;;;21.88;4.70;;;;;;;11.04;86.30;102183.16;5036312;28;20040;-43
2021/09/28 05:10:35;;;;;;;22.88;4.45;;;;;;;11.06;86.01;102189.81;5035941;28;20033;-43
2021/09/28 05:13:00;;;;;;;14.52;4.25;;;;;;;11.10;85.75;102185.13;5035889;28;20021;-43
2021/09/28 05:15:25;;;;;;;20.98;4.60;;;;;;;11.12;85.96;102179.81;5035784;28;20017;-43
2021/09/28 05:17:51;;;;;;;14.90;4.10;;;;;;;11.16;85.63;102178.50;5035770;28;20477;-43
2021/09/28 05:20:17;;;;;;;20.48;4.45;;;;;;;11.18;85.27;102179.19;5035911;28;20029;-43
2021/09/28 05:22:42;;;;;;;20.83;4.25;;;;;;;11.12;85.52;102187.56;5035769;28;20040;-43
2021/09/28 05:25:08;;;;;;;13.95;4.15;;;;;;;11.07;85.46;102188.03;5035925;28;20017;-43
2021/09/28 05:27:33;;;;;;;15.85;4.20;;;;;;;11.01;86.07;102186.88;5034430;28;20056;-43
2021/09/28 05:29:58;;;;;;;21.58;4.20;;;;;;;10.97;86.15;102192.53;5035591;28;20037;-42
2021/09/28 05:32:24;;;;;;;17.83;3.92;;;;;;;11.00;86.04;102181.84;5035686;28;20025;-42
2021/09/28 05:34:49;;;;;;;18.75;4.65;;;;;;;10.94;86.04;102177.31;5035995;28;20030;-42
2021/09/28 05:37:14;;;;;;;13.57;4.32;;;;;;;10.92;86.19;102189.59;5035333;28;20492;-42
2021/09/28 05:39:40;;;;;;;20.40;4.10;;;;;;;11.01;85.67;102181.69;5035413;28;20025;-42
2021/09/28 05:42:06;;;;;;;13.80;4.20;;;;;;;11.00;85.56;102189.63;5035365;28;20022;-42
2021/09/28 05:44:31;;;;;;;18.42;4.20;;;;;;;10.99;85.86;102198.31;5035620;28;20439;-41
2021/09/28 05:46:56;;;;;;;16.02;4.45;;;;;;;11.04;85.67;102193.50;5035441;28;20045;-42
2021/09/28 05:49:22;;;;;;;19.33;4.20;;;;;;;11.03;85.61;102192.69;5035197;28;20082;-42
2021/09/28 05:51:55;;;;;;;16.98;4.00;;;;;;;11.14;85.27;102196.78;5035065;28;20021;-42
2021/09/28 05:54:22;;;;;;;19.75;4.10;;;;;;;11.15;85.26;102207.94;5035359;28;20427;-42
2021/09/28 05:56:49;;;;;;;19.60;4.05;;;;;;;11.11;85.26;102204.06;5034887;28;20139;-42
2021/09/28 05:59:15;;;;;;;14.70;4.07;;;;;;;11.23;84.97;102201.03;5034972;28;20413;-42
2021/09/28 06:01:40;;;;;;;12.73;3.78;;;;;;;11.26;84.46;102192.94;5035101;28;20036;-42
2021/09/28 06:04:05;;;;;;;15.13;4.10;;;;;;;11.33;84.70;102202.66;5034907;28;20060;-43
2021/09/28 06:06:31;;;;;;;17.25;4.32;;;;;;;11.40;84.49;102203.69;5034817;28;20465;-43
2021/09/28 06:08:59;;;;;;;19.23;3.80;;;;;;;11.40;84.13;102201.91;5035297;28;20029;-42
2021/09/28 06:11:25;;;;;;;12.35;3.72;;;;;;;11.43;84.08;102213.72;5034717;28;20029;-42
2021/09/28 06:13:51;;;;;;;20.83;4.68;;;;;;;11.39;83.92;102197.66;5034615;28;20021;-42
2021/09/28 06:16:17;;;;;;;14.23;3.97;;;;;;;11.46;84.23;102201.25;5034276;28;20126;-43
2021/09/28 06:18:43;;;;;;;18.27;4.00;;;;;;;11.43;83.55;102200.78;5034225;28;20090;-43
2021/09/28 06:21:08;;;;;;;12.90;3.63;;;;;;;11.50;84.00;102201.75;5034777;28;20029;-43
2021/09/28 06:23:33;;;;;;;21.05;3.92;;;;;;;11.56;83.26;102210.66;5034137;28;20049;-42
2021/09/28 06:25:59;;;;;;;15.18;4.10;;;;;;;11.71;82.95;102214.28;5034231;28;20017;-42
2021/09/28 06:28:24;;;;;;;11.27;3.88;;;;;;;11.72;82.88;102208.94;5034235;28;20037;-43
2021/09/28 06:30:49;;;;;;;17.45;4.03;;;;;;;11.78;82.48;102214.44;5034279;28;20025;-42
2021/09/28 06:33:14;;;;;;;18.73;4.05;;;;;;;11.76;82.83;102212.00;5034109;28;20025;-42
2021/09/28 06:35:40;;;;;;;13.43;4.30;;;;;;;11.88;82.48;102209.94;5033824;28;20136;-42
2021/09/28 06:38:06;;;;;;;18.38;3.92;;;;;;;11.87;82.42;102200.56;5034074;28;20029;-42
2021/09/28 06:40:33;;;;;;;14.18;4.18;;;;;;;11.85;82.55;102205.88;5034360;28;20071;-42
2021/09/28 06:42:58;;;;;;;24.65;4.15;;;;;;;11.93;82.32;102212.88;5034014;28;20026;-42
2021/09/28 06:45:23;;;;;;;11.95;3.80;;;;;;;11.99;82.16;102208.81;5033554;28;20029;-42
2021/09/28 06:47:49;;;;;;;11.07;3.40;;;;;;;12.02;82.27;102209.31;5034479;28;20025;-43
2021/09/28 06:50:14;;;;;;;18.92;3.65;;;;;;;12.09;82.01;102201.72;5033967;28;20079;-42
2021/09/28 06:52:42;;;;;;;14.95;3.60;;;;;;;12.22;81.50;102217.56;5033830;28;20049;-43
2021/09/28 06:55:08;;;;;;;13.50;3.75;;;;;;;12.35;80.82;102206.72;5034083;28;20353;-42
2021/09/28 06:57:33;;;;;;;13.93;4.07;;;;;;;12.38;80.53;102208.97;5034087;28;20091;-42
2021/09/28 06:59:59;;;;;;;13.60;3.55;;;;;;;12.46;79.98;102210.72;5033645;28;20527;-42
2021/09/28 07:02:24;;;;;;;13.60;3.60;;;;;;;12.72;80.11;102213.16;5033513;28;20026;-42
2021/09/28 07:04:49;;;;;;;18.67;3.53;;;;;;;12.73;79.27;102212.97;5033756;28;20472;-42
2021/09/28 07:10:36;;;;;;;14.00;3.65;;;;;;;13.04;78.29;102213.03;5033757;28;20136;-43
2021/09/28 07:13:01;;;;;;;13.07;3.45;;;;;;;13.23;78.37;102211.00;5033973;28;20460;-42
2021/09/28 07:15:26;;;;;;;26.52;3.92;;;;;;;13.37;77.52;102220.69;5033706;28;20029;-43
2021/09/28 07:17:53;;;;;;;11.82;2.92;;;;;;;13.52;77.55;102221.63;5034008;28;20113;-43
2021/09/28 07:20:19;;;;;;;16.27;3.78;;;;;;;13.59;76.02;102226.91;5033741;28;20025;-43
2021/09/28 07:22:44;;;;;;;13.48;3.20;;;;;;;19.15;58.04;102229.59;5033357;28;20035;-44
2021/09/28 07:25:10;;;;;;;16.27;3.45;;;;;;;21.46;50.94;102219.78;5034404;28;20026;-42
2021/09/28 07:27:35;;;;;;;11.70;3.13;;;;;;;23.03;45.76;102220.91;5033290;28;20028;-44
2021/09/28 07:30:01;;;;;;;13.60;2.80;;;;;;;23.96;43.92;102220.63;5033316;28;20120;-44
2021/09/28 07:32:26;;;;;;;13.90;3.30;;;;;;;21.97;47.36;102218.41;5033533;28;20423;-43
2021/09/28 07:34:52;;;;;;;9.98;2.85;;;;;;;20.88;51.42;102222.97;5033992;28;20299;-43
2021/09/28 07:37:17;;;;;;;11.45;2.90;;;;;;;22.11;47.96;102213.72;5032944;28;20077;-43
2021/09/28 07:39:42;;;;;;;12.68;2.67;;;;;;;22.53;46.72;102224.94;5033154;28;20067;-44
2021/09/28 07:42:08;;;;;;;13.65;3.28;;;;;;;23.14;44.55;102224.56;5033410;28;20018;-44
2021/09/28 07:44:33;;;;;;;11.27;2.90;;;;;;;22.24;47.84;102223.22;5033107;28;20469;-44
2021/09/28 07:46:59;;;;;;;9.02;2.63;;;;;;;20.73;50.89;102224.16;5033086;28;20097;-45
2021/09/28 07:49:25;;;;;;;16.48;3.15;;;;;;;19.47;54.97;102232.25;5033146;28;20049;-43
2021/09/28 07:51:51;;;;;;;10.02;2.70;;;;;;;20.61;51.39;102227.75;5033121;28;20029;-43
2021/09/28 07:54:16;;;;;;;11.98;3.42;;;;;;;21.60;49.22;102234.34;5033070;28;20021;-43
2021/09/28 07:56:42;;;;;;;11.60;2.92;;;;;;;24.32;42.56;102233.28;5032584;28;20033;-43
2021/09/28 07:59:08;;;;;;;11.65;3.13;;;;;;;25.85;38.58;102233.31;5037106;28;20025;-44
2021/09/28 08:01:35;;;;;;;11.48;3.22;;;;;;;27.05;36.49;102232.56;5035826;28;20075;-43
2021/09/28 08:04:00;;;;;;;10.90;3.15;;;;;;;26.53;36.99;102234.25;5037043;28;20030;-43
2021/09/28 08:06:26;;;;;;;13.30;3.20;;;;;;;25.67;38.48;102237.94;5037311;28;20026;-43
2021/09/28 08:12:13;;;;;;;13.10;3.50;;;;;;;26.16;36.88;102238.81;5037275;28;20549;-44
2021/09/28 08:14:38;;;;;;;15.37;3.47;;;;;;;26.40;37.67;102242.66;5036891;28;20029;-43
2021/09/28 08:17:04;;;;;;;11.75;3.03;;;;;;;27.36;36.32;102236.06;5036666;28;20337;-43
2021/09/28 08:19:32;;;;;;;10.35;2.80;;;;;;;27.98;34.33;102241.34;5036906;28;20489;-43
2021/09/28 08:21:58;;;;;;;10.35;2.70;;;;;;;27.88;34.15;102228.88;5036984;28;20021;-43
2021/09/28 08:24:23;;;;;;;10.45;3.10;;;;;;;28.82;33.12;102234.38;5036716;28;20099;-44
2021/09/28 08:29:33;;;;;;;11.38;3.00;;;;;;;25.73;38.15;102233.47;5037178;28;20183;-43
2021/09/28 08:31:58;;;;;;;11.37;2.70;;;;;;;27.07;35.91;102234.91;5036835;28;20052;-43
2021/09/28 08:34:23;;;;;;;11.10;2.92;;;;;;;26.74;35.47;102250.22;5036869;28;20287;-43
2021/09/28 08:36:49;;;;;;;12.10;2.77;;;;;;;26.76;35.71;102245.47;5036146;28;20045;-43
2021/09/28 08:39:15;;;;;;;11.17;3.10;;;;;;;28.52;33.09;102245.97;5036180;28;20311;-43
2021/09/28 08:41:46;;;;;;;12.75;2.83;;;;;;;27.35;35.06;102244.28;5037215;28;20374;-43
2021/09/28 08:44:15;;;;;;;10.53;2.90;;;;;;;27.72;34.08;102241.34;5036477;28;20026;-44
2021/09/28 08:46:45;;;;;;;10.95;2.58;;;;;;;28.23;33.71;102246.59;5036762;28;20018;-43
2021/09/28 08:49:10;;;;;;;10.30;2.95;;;;;;;29.51;31.40;102243.22;5036150;28;20030;-43
2021/09/28 08:51:37;;;;;;;12.35;2.80;;;;;;;29.97;30.75;102242.81;5036829;28;20040;-44
2021/09/28 08:54:02;;;;;;;11.85;3.22;;;;;;;27.80;33.40;102248.81;5036176;28;20056;-43
2021/09/28 08:56:28;;;;;;;12.38;3.00;;;;;;;27.53;34.29;102248.25;5035983;28;20029;-44
2021/09/28 08:59:02;;;;;;;13.48;3.08;;;;;;;28.26;33.19;102250.56;5036295;28;20025;-44
2021/09/28 09:01:29;;;;;;;13.32;3.25;;;;;;;28.46;33.09;102250.53;5034635;28;20029;-44
2021/09/28 09:03:55;;;;;;;13.63;2.75;;;;;;;28.30;32.53;102240.97;5036251;28;20375;-44
2021/09/28 09:06:33;;;;;;;14.68;3.03;;;;;;;30.56;30.58;102248.81;5035968;28;20022;-44
2021/09/28 09:09:03;;;;;;;12.70;2.78;;;;;;;29.89;30.51;102243.41;5035299;28;20025;-43
2021/09/28 09:11:37;;;;;;;12.55;2.72;;;;;;;27.52;34.38;102236.84;5034262;28;20318;-44
2021/09/28 09:14:16;;;;;;;14.75;2.92;;;;;;;25.07;38.97;102246.09;5035729;28;20024;-44
2021/09/28 09:16:43;;;;;;;16.38;3.70;;;;;;;26.88;35.29;102245.25;5035692;28;20029;-43
2021/09/28 09:19:12;;;;;;;16.48;2.85;;;;;;;24.13;40.84;102250.44;5034432;28;20117;-43
2021/09/28 09:21:53;;;;;;;15.98;3.28;;;;;;;26.00;37.74;102236.06;5035497;28;20037;-44
2021/09/28 09:24:38;;;;;;;11.95;3.20;;;;;;;26.93;37.08;102239.94;5035965;28;20022;-43
2021/09/28 09:27:05;;;;;;;9.50;2.63;;;;;;;27.36;35.28;102235.25;5036088;28;20040;-44
2021/09/28 09:29:30;;;;;;;9.88;2.90;;;;;;;26.70;35.64;102242.00;5035293;28;20022;-48
2021/09/28 09:31:55;;;;;;;11.80;2.75;;;;;;;27.57;34.90;102239.50;5035669;28;20112;-43
2021/09/28 09:34:22;;;;;;;9.55;2.65;;;;;;;26.77;35.51;102231.16;5035339;28;20109;-43
2021/09/28 09:36:54;;;;;;;10.07;2.85;;;;;;;28.28;33.78;102235.94;5035001;28;20049;-43
2021/09/28 09:39:21;;;;;;;14.48;2.90;;;;;;;28.92;32.84;102226.34;5035586;28;20025;-46
2021/09/28 09:41:47;;;;;;;10.73;2.95;;;;;;;24.96;38.85;102221.38;5035513;28;20032;-43
2021/09/28 09:44:15;;;;;;;14.00;3.13;;;;;;;22.97;43.73;102217.38;5035182;28;20021;-43
2021/09/28 09:46:50;;;;;;;15.30;3.15;;;;;;;21.76;47.58;102216.34;5017024;28;20463;-43
2021/09/28 09:49:26;;;;;;;13.93;3.00;;;;;;;22.13;46.17;102216.13;5034746;28;20029;-44
2021/09/28 09:55:31;;;;;;;17.67;2.90;;;;;;;22.17;47.65;102217.25;5035243;28;20041;-43
2021/09/28 09:57:58;;;;;;;12.68;2.65;;;;;;;21.90;47.26;102209.81;5034900;28;20048;-44
2021/09/28 10:00:24;;;;;;;17.58;2.90;;;;;;;20.01;51.29;102209.91;5035352;28;20022;-43
2021/09/28 10:02:50;;;;;;;14.45;3.10;;;;;;;20.15;51.74;102213.22;5035545;28;20079;-44
2021/09/28 10:05:16;;;;;;;16.92;2.80;;;;;;;20.21;51.93;102205.28;5034701;28;20021;-43
2021/09/28 10:07:42;;;;;;;11.40;2.75;;;;;;;21.30;49.73;102202.81;5034588;28;20032;-43
2021/09/28 10:10:14;;;;;;;12.00;2.70;;;;;;;21.53;48.18;102207.38;5034990;28;20104;-43
2021/09/28 10:12:39;;;;;;;14.30;2.58;;;;;;;20.92;50.24;102205.75;5033501;28;20091;-42
2021/09/28 10:15:08;;;;;;;18.63;2.88;;;;;;;21.01;49.63;102196.53;5034518;28;20464;-44
2021/09/28 10:17:44;;;;;;;19.27;2.83;;;;;;;21.60;49.07;102191.47;5035469;28;20453;-43
2021/09/28 10:20:22;;;;;;;13.70;2.35;;;;;;;21.21;49.23;102198.09;5034538;28;20044;-42
2021/09/28 10:22:49;;;;;;;13.43;2.40;;;;;;;20.76;50.14;102194.00;5034314;28;20472;-42
2021/09/28 10:25:23;;;;;;;10.75;2.47;;;;;;;21.32;49.57;102192.06;5033091;28;20424;-44
2021/09/28 10:31:29;;;;;;;16.42;2.95;;;;;;;20.45;51.15;102190.47;5034590;28;20048;-43
2021/09/28 10:33:54;;;;;;;14.93;3.20;;;;;;;19.94;52.49;102190.78;5034268;28;20108;-43
2021/09/28 10:36:23;;;;;;;11.75;2.60;;;;;;;20.63;51.32;102191.53;5032684;28;20125;-43
2021/09/28 10:38:58;;;;;;;13.50;2.70;;;;;;;19.60;52.68;102196.25;5034433;28;20025;-44
2021/09/28 10:41:38;;;;;;;11.63;2.72;;;;;;;19.06;54.33;102202.03;5034462;28;20423;-43
2021/09/28 10:44:40;;;;;;;14.73;2.67;;;;;;;18.74;54.33;102183.63;5034367;28;20033;-43
2021/09/28 10:47:06;;;;;;;13.18;2.83;;;;;;;18.63;55.75;102186.84;5034508;28;20043;-43
2021/09/28 10:49:34;;;;;;;12.20;2.40;;;;;;;19.19;53.72;102188.88;5034128;28;20025;-44
2021/09/28 10:52:21;;;;;;;18.88;2.30;;;;;;;19.73;52.56;102190.13;5034395;28;20364;-43
2021/09/28 10:55:20;;;;;;;13.40;2.50;;;;;;;19.81;51.34;102178.59;5034607;28;20476;-43
2021/09/28 10:57:54;;;;;;;13.15;2.55;;;;;;;19.59;52.48;102176.31;5011730;28;20041;-44
2021/09/28 11:00:26;;;;;;;10.20;2.15;;;;;;;19.71;51.34;102167.75;5033387;28;20040;-42
2021/09/28 11:02:57;;;;;;;11.15;2.38;;;;;;;19.69;49.99;102172.44;5033550;28;20026;-43
2021/09/28 11:05:32;;;;;;;10.30;1.90;;;;;;;20.76;46.82;102165.13;5033909;28;20060;-44
2021/09/28 11:07:59;;;;;;;14.10;2.10;;;;;;;21.54;45.90;102156.34;5032425;28;20108;-43
2021/09/28 11:10:26;;;;;;;16.13;2.50;;;;;;;21.74;45.75;102160.50;5033597;28;20025;-43
2021/09/28 11:12:51;;;;;;;15.27;2.47;;;;;;;21.02;48.86;102155.28;5032964;28;20048;-44
2021/09/28 11:15:21;;;;;;;15.80;2.55;;;;;;;21.68;45.80;102148.25;5033490;28;20484;-43
2021/09/28 11:17:47;;;;;;;11.95;2.25;;;;;;;21.56;45.89;102149.06;5033549;28;20099;-43
2021/09/28 11:20:24;;;;;;;12.38;2.22;;;;;;;21.61;46.24;102141.28;5033384;28;20021;-43
2021/09/28 11:26:11;;;;;;;11.15;2.10;;;;;;;20.40;47.68;102143.09;5033955;28;20185;-43
2021/09/28 11:28:47;;;;;;;11.18;2.47;;;;;;;20.48;48.88;102132.31;5033216;28;20556;-43
2021/09/28 11:31:13;;;;;;;9.65;2.13;;;;;;;20.89;48.06;102140.53;5033720;28;20377;-43
2021/09/28 11:33:41;;;;;;;11.02;2.60;;;;;;;21.31;47.59;102135.25;5033531;28;20028;-45
2021/09/28 11:36:11;;;;;;;12.40;2.40;;;;;;;20.35;48.95;102135.06;5033191;28;20069;-43
2021/09/28 11:38:39;;;;;;;13.60;2.50;;;;;;;19.59;48.49;102138.78;5033706;28;20029;-43